Time;durP1;ratioP1;P1;durP2;ratioP2;P2;SDS_P1;SDS_P2;PMS_P1;PMS_P2;Temp;Humidity;BMP_temperature;BMP_pressure;BME280_temperature;BME280_humidity;BME280_pressure;Samples;Min_cycle;Max_cycle;Signal;HPM_P1;HPM_P2
2023/04/03 00:00:59;;;;;;;;;37.33;30.00;;;;;7.77;100.00;102186.66;4999531;28;45416;-74
2023/04/03 00:03:24;;;;;;;;;33.67;27.67;;;;;7.76;100.00;102187.66;4995194;28;45492;-74
2023/04/03 00:05:50;;;;;;;;;26.33;23.00;;;;;7.80;100.00;102190.97;4973607;28;46560;-73
2023/04/03 00:08:16;;;;;;;;;32.33;30.67;;;;;7.80;100.00;102181.88;4998539;28;47032;-73
2023/04/03 00:10:41;;;;;;;;;29.33;27.33;;;;;7.80;100.00;102182.75;5008201;28;45483;-74
2023/04/03 00:13:07;;;;;;;;;34.75;30.50;;;;;7.80;100.00;102190.97;5005263;28;45648;-74
2023/04/03 00:15:35;;;;;;;;;37.75;32.25;;;;;7.75;100.00;102183.22;4997869;28;45536;-74
2023/04/03 00:18:01;;;;;;;;;32.67;29.67;;;;;7.76;100.00;102189.53;4998114;28;46640;-73
2023/04/03 00:20:27;;;;;;;;;34.25;30.75;;;;;7.77;100.00;102197.56;5003933;28;45548;-73
2023/04/03 00:22:53;;;;;;;;;33.33;29.67;;;;;7.74;100.00;102180.66;5002860;28;45500;-74
2023/04/03 00:25:18;;;;;;;;;37.67;25.33;;;;;7.76;100.00;102200.47;5000331;28;45420;-73
2023/04/03 00:27:44;;;;;;;;;34.00;28.00;;;;;7.66;100.00;102184.13;4995098;28;46074;-74
2023/04/03 00:30:12;;;;;;;;;30.00;27.67;;;;;7.77;100.00;102199.47;4972326;28;45964;-74
2023/04/03 00:32:38;;;;;;;;;27.50;22.75;;;;;7.82;100.00;102188.06;4992667;28;45405;-72
2023/04/03 00:35:03;;;;;;;;;38.00;32.50;;;;;7.80;100.00;102193.69;4995382;28;46153;-74
2023/04/03 00:37:29;;;;;;;;;34.33;31.67;;;;;7.83;100.00;102193.38;4992526;28;45811;-73
2023/04/03 00:39:55;;;;;;;;;28.00;26.50;;;;;7.82;100.00;102197.13;5000433;28;45404;-74
2023/04/03 00:42:20;;;;;;;;;24.00;20.00;;;;;7.80;100.00;102179.16;5008323;28;45427;-74
2023/04/03 00:44:46;;;;;;;;;35.00;31.25;;;;;7.84;100.00;102200.53;5009810;28;45459;-76
2023/04/03 00:47:15;;;;;;;;;35.50;31.00;;;;;7.82;100.00;102193.53;4999646;28;45531;-73
2023/04/03 00:49:42;;;;;;;;;41.00;32.33;;;;;7.81;100.00;102198.13;5005668;28;45768;-74
2023/04/03 00:52:12;;;;;;;;;29.00;23.75;;;;;7.72;100.00;102188.13;4997607;28;45635;-74
2023/04/03 00:54:40;;;;;;;;;41.50;28.50;;;;;7.77;100.00;102191.28;4993348;28;45817;-73
2023/04/03 00:57:06;;;;;;;;;40.75;32.25;;;;;7.74;100.00;102191.59;4993406;28;45557;-74
2023/04/03 00:59:35;;;;;;;;;41.00;32.25;;;;;7.76;100.00;102186.81;4972873;28;45415;-74
2023/04/03 01:02:01;;;;;;;;;33.50;26.25;;;;;7.73;100.00;102184.38;5001669;28;45788;-75
2023/04/03 01:04:38;;;;;;;;;36.00;33.50;;;;;7.74;100.00;102186.97;4996862;28;45638;-75
2023/04/03 01:07:20;;;;;;;;;36.50;31.00;;;;;7.70;100.00;102185.56;4961541;28;46115;-73
2023/04/03 01:09:48;;;;;;;;;36.50;32.75;;;;;7.70;100.00;102176.50;4975276;28;45672;-73
2023/04/03 01:12:21;;;;;;;;;36.50;29.25;;;;;7.73;100.00;102184.38;4998442;28;45554;-74
2023/04/03 01:14:50;;;;;;;;;39.25;34.75;;;;;7.71;100.00;102186.41;4994623;28;45483;-73
2023/04/03 01:17:45;;;;;;;;;41.75;35.75;;;;;7.68;100.00;102189.44;5000901;28;45427;-72
2023/04/03 01:20:35;;;;;;;;;31.50;27.50;;;;;7.70;100.00;102185.56;4974439;28;45796;-73
2023/04/03 01:23:09;;;;;;;;;30.00;28.50;;;;;7.67;100.00;102191.31;4997400;28;45791;-73
2023/04/03 01:25:44;;;;;;;;;33.25;32.00;;;;;7.67;100.00;102190.47;4997169;28;45479;-73
2023/04/03 01:28:15;;;;;;;;;38.00;29.50;;;;;7.62;100.00;102181.88;4986318;28;45515;-74
2023/04/03 01:30:52;;;;;;;;;32.75;30.50;;;;;7.55;100.00;102182.47;4984322;28;45905;-72
2023/04/03 01:33:18;;;;;;;;;30.75;24.50;;;;;7.48;100.00;102170.47;4974566;28;45695;-73
2023/04/03 01:35:43;;;;;;;;;30.00;26.00;;;;;7.46;100.00;102166.19;4993850;28;45507;-73
2023/04/03 01:38:09;;;;;;;;;31.75;28.75;;;;;7.52;100.00;102174.59;4995001;28;46822;-71
2023/04/03 01:40:34;;;;;;;;;31.00;30.00;;;;;7.48;100.00;102165.00;5006315;28;45484;-71
2023/04/03 01:43:00;;;;;;;;;33.33;28.33;;;;;7.49;100.00;102176.78;5005379;28;45827;-74
2023/04/03 01:45:25;;;;;;;;;24.75;21.00;;;;;7.50;100.00;102165.72;4991253;28;45738;-73
2023/04/03 01:47:50;;;;;;;;;33.75;27.50;;;;;7.46;100.00;102158.00;4996111;28;46887;-72
2023/04/03 01:50:16;;;;;;;;;31.75;28.50;;;;;7.45;100.00;102168.03;4976363;28;45339;-73
2023/04/03 01:52:41;;;;;;;;;30.25;28.00;;;;;7.43;100.00;102168.19;5005871;28;45334;-73
2023/04/03 01:55:09;;;;;;;;;29.75;28.00;;;;;7.41;100.00;102161.19;5004691;28;45454;-74
2023/04/03 01:57:34;;;;;;;;;28.00;23.25;;;;;7.42;100.00;102165.63;5005763;28;46243;-73
2023/04/03 02:00:00;;;;;;;;;38.25;30.75;;;;;7.41;100.00;102164.78;5004664;28;45977;-75
2023/04/03 02:02:25;;;;;;;;;34.75;29.00;;;;;7.41;100.00;102164.78;4999224;28;46830;-77
2023/04/03 02:04:51;;;;;;;;;34.00;27.67;;;;;7.41;100.00;102163.91;4993917;28;45391;-76
2023/04/03 02:07:16;;;;;;;;;30.75;29.25;;;;;7.38;100.00;102164.19;4998064;28;46557;-75
2023/04/03 02:09:41;;;;;;;;;24.00;24.00;;;;;7.39;100.00;102166.78;4996751;28;45436;-74
2023/04/03 02:12:07;;;;;;;;;31.25;26.75;;;;;7.33;100.00;102158.34;5005594;28;45835;-74
2023/04/03 02:14:32;;;;;;;;;35.00;29.25;;;;;7.30;100.00;102166.84;5008089;28;45834;-75
2023/04/03 02:16:57;;;;;;;;;34.00;28.67;;;;;7.34;100.00;102173.72;5010452;28;45954;-75
2023/04/03 02:19:23;;;;;;;;;30.00;27.75;;;;;7.33;100.00;102161.06;4999066;28;45588;-74
2023/04/03 02:21:48;;;;;;;;;38.25;29.25;;;;;7.36;100.00;102171.69;4997379;28;45499;-74
2023/04/03 02:24:14;;;;;;;;;27.50;23.00;;;;;7.28;100.00;102157.97;5000000;28;46843;-79
2023/04/03 02:26:39;;;;;;;;;27.50;24.75;;;;;7.34;100.00;102168.25;4997509;28;45795;-72
2023/04/03 02:29:05;;;;;;;;;30.50;27.50;;;;;7.32;100.00;102159.34;4997747;28;45867;-73
2023/04/03 02:31:31;;;;;;;;;30.25;26.00;;;;;7.38;100.00;102169.66;4997963;28;45868;-73
2023/04/03 02:33:56;;;;;;;;;32.33;26.67;;;;;7.35;100.00;102168.09;4996309;28;45770;-73
2023/04/03 02:36:21;;;;;;;;;29.75;26.75;;;;;7.31;100.00;102163.13;4997445;28;46719;-73
2023/04/03 02:38:48;;;;;;;;;29.67;25.33;;;;;7.21;100.00;102150.34;4995755;28;45447;-73
2023/04/03 02:41:13;;;;;;;;;28.00;26.33;;;;;7.31;100.00;102169.41;4994148;28;46407;-73
2023/04/03 02:43:39;;;;;;;;;32.00;27.00;;;;;7.25;100.00;102159.13;4993198;28;45594;-72
2023/04/03 02:46:05;;;;;;;;;24.00;22.33;;;;;7.34;100.00;102162.81;4997419;28;45775;-72
2023/04/03 02:48:30;;;;;;;;;23.00;22.33;;;;;7.24;100.00;102171.03;4984744;28;45725;-73
2023/04/03 02:50:56;;;;;;;;;25.00;23.67;;;;;7.28;100.00;102167.00;4999265;28;45398;-72
2023/04/03 02:53:22;;;;;;;;;19.00;18.67;;;;;7.30;100.00;102172.31;4999258;28;45632;-73
2023/04/03 02:55:47;;;;;;;;;17.00;16.00;;;;;7.30;100.00;102170.41;4993876;28;47404;-73
2023/04/03 02:58:13;;;;;;;;;26.33;20.67;;;;;7.27;100.00;102167.16;5005224;28;45460;-74
2023/04/03 03:00:38;;;;;;;;;24.33;18.67;;;;;7.28;100.00;102163.41;4994001;28;45809;-73
2023/04/03 03:03:04;;;;;;;;;19.67;16.67;;;;;7.30;100.00;102166.84;4992396;28;45788;-72
2023/04/03 03:05:30;;;;;;;;;24.00;18.33;;;;;7.27;100.00;102158.97;4992930;28;45519;-75
2023/04/03 03:07:55;;;;;;;;;35.50;27.00;;;;;7.30;100.00;102153.19;4987650;28;45838;-73
2023/04/03 03:10:21;;;;;;;;;20.00;17.33;;;;;7.29;100.00;102156.94;4993128;28;45458;-74
2023/04/03 03:12:47;;;;;;;;;27.33;22.33;;;;;7.28;100.00;102166.16;5000157;28;45471;-74
2023/04/03 03:15:13;;;;;;;;;24.67;17.33;;;;;7.29;100.00;102162.38;4994757;28;47007;-72
2023/04/03 03:17:38;;;;;;;;;18.67;16.33;;;;;7.18;100.00;102136.16;4998529;28;45728;-73
2023/04/03 03:20:05;;;;;;;;;19.00;16.67;;;;;7.24;100.00;102168.31;4996835;28;45817;-73
2023/04/03 03:22:32;;;;;;;;;17.67;16.67;;;;;7.22;100.00;102157.53;4983671;28;47073;-74
2023/04/03 03:24:57;;;;;;;;;18.00;17.00;;;;;7.19;100.00;102166.03;4995820;28;45776;-74
2023/04/03 03:27:23;;;;;;;;;18.67;15.33;;;;;7.06;100.00;102132.78;4993617;28;45745;-75
2023/04/03 03:29:49;;;;;;;;;21.33;16.67;;;;;6.99;100.00;102132.53;4994245;28;45503;-73
2023/04/03 03:32:14;;;;;;;;;23.67;19.00;;;;;7.08;100.00;102141.69;4991973;28;45733;-75
2023/04/03 03:34:40;;;;;;;;;17.33;16.00;;;;;7.01;100.00;102132.41;4998689;28;45669;-74
2023/04/03 03:37:05;;;;;;;;;21.33;16.67;;;;;7.12;100.00;102158.59;5000075;28;45744;-73
2023/04/03 03:39:31;;;;;;;;;18.67;17.33;;;;;6.98;100.00;102136.28;4999241;28;45782;-74
2023/04/03 03:41:56;;;;;;;;;17.33;17.33;;;;;7.02;100.00;102150.47;4988310;28;45897;-72
2023/04/03 03:44:21;;;;;;;;;16.67;14.67;;;;;7.02;100.00;102147.72;4993922;28;45392;-72
2023/04/03 03:46:47;;;;;;;;;18.67;16.67;;;;;6.87;100.00;102131.88;4999734;28;45735;-74
2023/04/03 03:49:12;;;;;;;;;19.67;16.67;;;;;6.82;100.00;102119.69;4992210;28;46607;-74
2023/04/03 03:51:39;;;;;;;;;18.67;16.33;;;;;7.01;100.00;102159.66;4996271;28;45364;-74
2023/04/03 03:54:05;;;;;;;;;16.00;15.00;;;;;6.99;100.00;102142.56;4995836;28;45460;-72
2023/04/03 03:56:31;;;;;;;;;15.67;15.33;;;;;7.04;100.00;102156.63;4999350;28;45612;-74
2023/04/03 03:58:56;;;;;;;;;21.67;18.00;;;;;6.88;100.00;102128.13;4975256;28;45662;-75
2023/04/03 04:01:23;;;;;;;;;24.33;23.00;;;;;7.06;100.00;102154.59;5003039;28;45454;-73
2023/04/03 04:03:49;;;;;;;;;26.67;17.67;;;;;7.04;100.00;102156.63;5009268;28;46395;-76
2023/04/03 04:06:15;;;;;;;;;19.33;17.00;;;;;7.06;100.00;102163.63;5009342;28;45772;-74
2023/04/03 04:08:40;;;;;;;;;18.67;15.33;;;;;7.05;100.00;102156.50;5006860;28;45901;-75
2023/04/03 04:11:07;;;;;;;;;19.33;18.33;;;;;7.07;100.00;102156.34;4995443;28;45799;-74
2023/04/03 04:13:32;;;;;;;;;21.00;17.00;;;;;7.05;100.00;102158.34;4996966;28;46061;-74
2023/04/03 04:15:57;;;;;;;;;17.67;15.33;;;;;7.03;100.00;102150.31;4982096;28;45427;-75
2023/04/03 04:18:23;;;;;;;;;19.00;17.67;;;;;7.07;100.00;102149.00;4982532;28;45715;-73
2023/04/03 04:20:49;;;;;;;;;48.25;38.50;;;;;7.05;100.00;102159.22;5001101;28;46209;-73
2023/04/03 04:23:14;;;;;;;;;27.67;21.33;;;;;7.01;100.00;102151.50;4992570;28;45775;-76
2023/04/03 04:25:40;;;;;;;;;26.33;22.67;;;;;6.89;100.00;102132.56;4993580;28;45518;-80
2023/04/03 04:28:06;;;;;;;;;26.00;17.00;;;;;7.02;100.00;102148.59;4999624;28;45718;-79
2023/04/03 04:30:31;;;;;;;;;17.67;15.33;;;;;6.84;100.00;102121.28;4994584;28;45648;-79
2023/04/03 04:32:57;;;;;;;;;20.00;17.33;;;;;7.07;100.00;102153.59;4991046;28;46645;-78
2023/04/03 04:35:23;;;;;;;;;22.67;19.33;;;;;7.14;100.00;102153.84;4991003;28;45835;-82
2023/04/03 04:37:48;;;;;;;;;19.33;17.67;;;;;7.17;100.00;102162.59;4992783;28;45656;-79
2023/04/03 04:40:14;;;;;;;;;25.00;19.00;;;;;7.12;100.00;102150.41;4993875;28;45508;-79
2023/04/03 04:42:40;;;;;;;;;22.67;16.00;;;;;7.01;100.00;102132.41;5010698;28;45553;-80
2023/04/03 04:45:05;;;;;;;;;23.67;20.00;;;;;7.09;100.00;102143.41;4995087;28;45652;-79
2023/04/03 04:47:31;;;;;;;;;25.33;22.00;;;;;7.10;100.00;102150.56;4995139;28;45813;-77
2023/04/03 04:49:56;;;;;;;;;24.33;20.00;;;;;7.04;100.00;102157.50;4994599;28;45535;-75
2023/04/03 04:52:21;;;;;;;;;21.00;16.00;;;;;7.06;100.00;102162.78;4991800;28;45738;-77
2023/04/03 04:54:47;;;;;;;;;14.67;14.67;;;;;6.98;100.00;102151.78;5005241;28;45435;-81
2023/04/03 04:57:12;;;;;;;;;21.67;16.67;;;;;6.89;100.00;102143.47;5004148;28;45520;-78
2023/04/03 04:59:38;;;;;;;;;25.50;22.00;;;;;6.98;100.00;102158.09;4996583;28;45361;-80
2023/04/03 05:02:04;;;;;;;;;26.00;17.33;;;;;6.92;100.00;102153.25;4992553;28;46226;-81
2023/04/03 05:04:33;;;;;;;;;21.33;16.67;;;;;6.74;100.00;102146.84;4983009;28;45695;-79
2023/04/03 05:06:59;;;;;;;;;21.33;18.33;;;;;6.88;100.00;102174.47;4994699;28;45692;-82
2023/04/03 05:09:25;;;;;;;;;21.67;20.67;;;;;6.80;100.00;102159.91;4980048;28;46465;-79
2023/04/03 05:11:50;;;;;;;;;23.67;20.33;;;;;6.81;100.00;102173.38;4974499;28;46284;-75
2023/04/03 05:14:16;;;;;;;;;26.50;23.50;;;;;6.79;100.00;102169.94;4994453;28;45515;-74
2023/04/03 05:16:41;;;;;;;;;29.25;22.00;;;;;6.75;100.00;102167.66;4993012;28;45488;-73
2023/04/03 05:19:07;;;;;;;;;20.67;17.67;;;;;6.70;100.00;102176.28;4990527;28;45417;-77
2023/04/03 05:21:32;;;;;;;;;25.50;22.75;;;;;6.63;100.00;102166.97;4990627;28;46265;-75
2023/04/03 05:24:02;;;;;;;;;27.33;23.67;;;;;6.68;100.00;102173.69;4986091;28;45355;-75
2023/04/03 05:26:27;;;;;;;;;30.67;25.00;;;;;6.68;100.00;102173.69;4991112;28;45491;-75
2023/04/03 05:28:53;;;;;;;;;24.33;22.33;;;;;6.65;100.00;102167.69;5004918;28;45636;-73
2023/04/03 05:31:19;;;;;;;;;23.00;22.00;;;;;6.59;100.00;102157.38;4999273;28;46044;-73
2023/04/03 05:33:45;;;;;;;;;20.00;17.33;;;;;6.63;100.00;102164.25;4998168;28;45535;-74
2023/04/03 05:36:12;;;;;;;;;26.50;22.50;;;;;6.68;100.00;102167.41;4980003;28;45816;-75
2023/04/03 05:38:38;;;;;;;;;22.67;20.67;;;;;6.68;100.00;102162.78;4996064;28;45679;-76
2023/04/03 05:41:04;;;;;;;;;27.00;26.25;;;;;6.69;100.00;102180.00;4994732;28;45611;-74
2023/04/03 05:43:29;;;;;;;;;20.25;19.00;;;;;6.68;100.00;102173.69;4982602;28;46004;-76
2023/04/03 05:45:55;;;;;;;;;32.67;23.33;;;;;6.66;100.00;102170.28;4983404;28;45416;-82
2023/04/03 05:48:20;;;;;;;;;22.67;20.33;;;;;6.72;100.00;102186.03;4994594;28;46085;-75
2023/04/03 05:50:46;;;;;;;;;25.33;19.67;;;;;6.72;100.00;102180.59;5002566;28;45721;-79
2023/04/03 05:53:21;;;;;;;;;24.67;23.67;;;;;6.65;100.00;102186.78;5008415;28;46011;-73
2023/04/03 05:55:46;;;;;;;;;27.67;21.67;;;;;6.66;100.00;102186.63;5000492;28;45538;-75
2023/04/03 05:58:21;;;;;;;;;21.00;21.00;;;;;6.65;100.00;102181.31;4994345;28;45699;-82
2023/04/03 06:00:47;;;;;;;;;24.25;23.00;;;;;6.57;100.00;102167.56;5005234;28;45966;-76
2023/04/03 06:03:12;;;;;;;;;23.33;21.00;;;;;6.70;100.00;102190.75;4996872;28;45415;-76
2023/04/03 06:05:38;;;;;;;;;23.00;20.00;;;;;6.74;100.00;102183.16;4987894;28;45793;-76
2023/04/03 06:08:03;;;;;;;;;17.67;14.67;;;;;6.79;100.00;102191.75;4985762;28;47236;-74
2023/04/03 06:10:29;;;;;;;;;25.67;22.67;;;;;6.67;100.00;102177.44;4991766;28;45946;-76
2023/04/03 06:12:54;;;;;;;;;23.00;21.25;;;;;6.79;100.00;102190.91;4995069;28;45507;-77
2023/04/03 06:15:21;;;;;;;;;25.33;20.67;;;;;6.75;100.00;102194.91;5002369;28;45876;-75
2023/04/03 06:17:46;;;;;;;;;24.33;23.33;;;;;6.70;100.00;102181.72;5003053;28;45765;-75
2023/04/03 06:20:13;;;;;;;;;26.67;25.00;;;;;6.65;100.00;102170.44;5001058;28;47111;-78
2023/04/03 06:22:41;;;;;;;;;22.00;21.67;;;;;6.78;100.00;102191.88;5005606;28;45666;-77
2023/04/03 06:25:07;;;;;;;;;23.33;22.67;;;;;6.87;100.00;102189.16;4999239;28;46864;-76
2023/04/03 06:27:33;;;;;;;;;24.75;22.25;;;;;6.84;100.00;102184.00;4993403;28;45857;-77
2023/04/03 06:29:59;;;;;;;;;21.75;17.25;;;;;7.01;100.00;102190.53;4998664;28;46210;-74
2023/04/03 06:32:24;;;;;;;;;24.50;22.50;;;;;7.05;100.00;102196.53;4998610;28;45883;-73
2023/04/03 06:34:50;;;;;;;;;27.00;25.00;;;;;7.15;100.00;102188.31;4995842;28;45867;-73
2023/04/03 06:37:18;;;;;;;;;22.25;16.75;;;;;7.20;100.00;102197.78;4996037;28;46086;-75
2023/04/03 06:39:43;;;;;;;;;24.00;22.33;;;;;7.30;100.00;102189.53;4994666;28;46198;-74
2023/04/03 06:42:09;;;;;;;;;27.50;26.00;;;;;7.42;100.00;102201.09;5002098;28;45480;-74
2023/04/03 06:44:35;;;;;;;;;27.67;18.67;;;;;7.44;100.00;102196.38;5000689;28;45811;-72
2023/04/03 06:47:00;;;;;;;;;23.33;21.67;;;;;7.51;100.00;102205.63;4971780;28;46171;-73
2023/04/03 06:49:32;;;;;;;;;25.00;22.33;;;;;7.57;100.00;102193.25;4972724;28;46857;-76
2023/04/03 06:51:58;;;;;;;;;23.67;20.67;;;;;7.59;100.00;102194.81;4974076;28;45470;-73
2023/04/03 06:54:23;;;;;;;;;20.00;17.33;;;;;7.70;100.00;102203.81;4979125;28;45893;-74
2023/04/03 06:56:50;;;;;;;;;24.67;23.00;;;;;7.78;100.00;102198.44;4984996;28;45745;-75
2023/04/03 06:59:15;;;;;;;;;24.33;23.00;;;;;7.91;100.00;102206.25;4984344;28;46987;-75
2023/04/03 07:01:41;;;;;;;;;22.00;18.67;;;;;7.97;100.00;102205.63;4987803;28;45529;-75
2023/04/03 07:04:07;;;;;;;;;26.67;21.67;;;;;8.03;100.00;102198.69;4983676;28;46036;-75
2023/04/03 07:06:33;;;;;;;;;26.33;24.00;;;;;8.04;100.00;102198.53;4969017;28;46128;-75
2023/04/03 07:08:59;;;;;;;;;26.67;22.33;;;;;8.09;100.00;102195.31;4991340;28;45850;-75
2023/04/03 07:11:26;;;;;;;;;27.00;24.00;;;;;7.97;100.00;102170.13;4992439;28;45821;-74
2023/04/03 07:13:52;;;;;;;;;26.33;20.67;;;;;8.23;100.00;102197.50;4992152;28;45774;-76
2023/04/03 07:16:17;;;;;;;;;23.33;20.33;;;;;8.30;100.00;102193.09;4992735;28;45814;-73
2023/04/03 07:18:43;;;;;;;;;21.67;21.33;;;;;8.47;100.00;102193.28;4992051;28;46403;-75
2023/04/03 07:21:08;;;;;;;;;25.00;20.33;;;;;8.51;100.00;102174.69;4993172;28;45781;-75
2023/04/03 07:23:34;;;;;;;;;26.00;22.33;;;;;8.72;100.00;102197.03;4993083;28;46003;-74
2023/04/03 07:25:59;;;;;;;;;26.00;20.33;;;;;8.80;100.00;102207.16;4992486;28;45768;-74
2023/04/03 07:28:25;;;;;;;;;29.00;25.00;;;;;8.80;100.00;102196.22;4974738;28;48468;-73
2023/04/03 07:31:03;;;;;;;;;23.00;20.00;;;;;8.78;100.00;102188.19;4997969;28;45423;-74
2023/04/03 07:33:29;;;;;;;;;18.00;15.33;;;;;9.09;100.00;102203.25;5000191;28;45455;-75
2023/04/03 07:35:55;;;;;;;;;22.33;19.00;;;;;9.13;100.00;102189.09;4995100;28;45535;-75
2023/04/03 07:38:20;;;;;;;;;22.67;19.00;;;;;9.17;100.00;102211.50;4992678;28;46013;-74
2023/04/03 07:40:49;;;;;;;;;19.33;19.33;;;;;9.34;100.00;102206.94;4997381;28;46474;-74
2023/04/03 07:43:16;;;;;;;;;21.67;18.33;;;;;9.09;100.00;102181.38;4998448;28;45444;-75
2023/04/03 07:45:43;;;;;;;;;16.67;16.67;;;;;9.24;100.00;102193.41;4994337;28;45854;-73
2023/04/03 07:48:13;;;;;;;;;25.00;20.33;;;;;9.34;100.00;102188.66;4995534;28;45996;-73
2023/04/03 07:50:42;;;;;;;;;21.00;20.00;;;;;9.48;100.00;102209.06;4994035;28;45423;-72
2023/04/03 07:53:07;;;;;;;;;20.33;19.33;;;;;9.59;100.00;102221.59;4980943;28;45915;-72
2023/04/03 07:55:33;;;;;;;;;15.67;14.33;;;;;9.62;100.00;102217.66;4990629;28;46996;-72
2023/04/03 07:57:59;;;;;;;;;17.00;16.33;;;;;9.57;100.00;102207.22;4979083;28;46710;-73
2023/04/03 08:00:25;;;;;;;;;21.33;19.67;;;;;9.68;100.00;102212.38;5004137;28;45709;-73
2023/04/03 08:02:51;;;;;;;;;17.00;15.67;;;;;9.83;100.00;102214.47;5007161;28;45598;-71
2023/04/03 08:05:21;;;;;;;;;21.67;18.00;;;;;9.95;100.00;102218.59;4985885;28;46392;-72
2023/04/03 08:07:47;;;;;;;;;19.00;17.00;;;;;9.95;100.00;102220.50;5001185;28;45717;-71
2023/04/03 08:10:13;;;;;;;;;21.67;16.67;;;;;9.96;100.00;102217.59;4994961;28;45463;-72
2023/04/03 08:12:39;;;;;;;;;22.67;19.33;;;;;10.00;100.00;102223.56;4982798;28;45565;-74
2023/04/03 08:15:05;;;;;;;;;19.00;14.00;;;;;10.01;100.00;102230.78;4995868;28;45569;-74
2023/04/03 08:17:31;;;;;;;;;17.67;16.00;;;;;10.19;100.00;102223.25;4995505;28;46965;-73
2023/04/03 08:19:56;;;;;;;;;20.33;18.33;;;;;10.31;100.00;102209.22;4996042;28;45888;-73
2023/04/03 08:22:21;;;;;;;;;21.00;17.00;;;;;10.38;100.00;102224.84;4977474;28;45773;-73
2023/04/03 08:24:47;;;;;;;;;18.67;17.33;;;;;10.48;100.00;102205.50;4991652;28;45761;-72
2023/04/03 08:27:13;;;;;;;;;17.33;16.00;;;;;10.74;100.00;102216.25;4992632;28;47999;-72
2023/04/03 08:29:38;;;;;;;;;15.33;13.67;;;;;10.90;100.00;102220.00;4992112;28;45463;-73
2023/04/03 08:32:04;;;;;;;;;6.67;6.67;;;;;10.97;100.00;102221.00;4989567;28;45738;-72
2023/04/03 08:34:30;;;;;;;;;14.33;14.33;;;;;10.88;100.00;102211.97;4994091;28;45692;-72
2023/04/03 08:36:56;;;;;;;;;12.00;12.00;;;;;10.73;100.00;102205.44;4999376;28;46058;-72
2023/04/03 08:39:22;;;;;;;;;10.00;10.00;;;;;10.82;100.00;102215.38;4978037;28;45479;-72
2023/04/03 08:41:48;;;;;;;;;11.67;9.67;;;;;10.52;100.00;102184.03;5000253;28;45448;-73
2023/04/03 08:44:38;;;;;;;;;7.33;7.33;;;;;10.46;100.00;102228.63;4999261;28;45816;-72
2023/04/03 08:47:32;;;;;;;;;10.00;10.00;;;;;10.39;100.00;102223.81;4972593;28;48100;-74
2023/04/03 08:49:59;;;;;;;;;10.00;7.67;;;;;10.47;100.00;102224.88;4991922;28;45856;-73
2023/04/03 08:52:51;;;;;;;;;9.67;8.00;;;;;10.47;100.00;102225.72;4974406;28;45599;-73
2023/04/03 08:55:25;;;;;;;;;9.33;7.33;;;;;10.32;100.00;102213.69;4971257;28;45594;-73
2023/04/03 08:58:20;;;;;;;;;9.33;8.00;;;;;10.16;100.00;102217.25;4967910;28;46067;-74
2023/04/03 09:00:53;;;;;;;;;8.00;8.00;;;;;9.94;100.00;102216.03;4985290;28;45900;-72
2023/04/03 09:03:22;;;;;;;;;9.33;9.33;;;;;9.97;100.00;102196.50;4992883;28;45397;-74
2023/04/03 09:06:05;;;;;;;;;9.33;8.00;;;;;10.10;100.00;102206.97;4993661;28;45594;-74
2023/04/03 09:09:35;;;;;;;;;14.33;11.00;;;;;10.14;100.00;102216.59;4974855;28;46290;-76
2023/04/03 09:12:16;;;;;;;;;9.67;9.33;;;;;10.31;100.00;102212.81;4929358;28;46269;-76
2023/04/03 09:15:14;;;;;;;;;12.67;9.00;;;;;10.12;100.00;102210.41;4916448;28;45548;-76
2023/04/03 09:18:23;;;;;;;;;10.00;9.00;;;;;9.95;100.00;102210.38;4967242;28;45434;-76
2023/04/03 09:21:13;;;;;;;;;11.00;10.00;;;;;9.91;100.00;102225.47;4970425;28;47597;-75
2023/04/03 09:23:45;;;;;;;;;13.00;8.67;;;;;9.82;100.00;102220.97;4980106;28;45971;-76
2023/04/03 09:26:18;;;;;;;;;12.00;10.67;;;;;9.58;100.00;102221.75;4998334;28;45397;-76
2023/04/03 09:28:44;;;;;;;;;6.00;6.00;;;;;9.58;100.00;102210.81;5010690;28;45383;-74
2023/04/03 09:31:24;;;;;;;;;9.00;8.00;;;;;9.69;100.00;102210.50;5003736;28;46340;-77
2023/04/03 09:33:55;;;;;;;;;6.00;6.00;;;;;9.87;100.00;102210.38;4997740;28;45438;-76
2023/04/03 09:36:45;;;;;;;;;9.00;6.33;;;;;11.21;100.00;102219.22;5003748;28;46441;-74
2023/04/03 09:39:22;;;;;;;;;9.67;9.67;;;;;12.50;97.48;102201.28;4994326;28;48016;-76
2023/04/03 09:42:03;;;;;;;;;7.67;7.67;;;;;13.66;94.65;102194.50;4983310;28;46326;-84
2023/04/03 09:44:36;;;;;;;;;9.67;7.67;;;;;14.29;91.20;102198.31;5010202;28;45856;-82
2023/04/03 09:47:37;;;;;;;;;11.00;8.67;;;;;14.08;87.53;102203.84;5003564;28;44838;-83
2023/04/03 09:50:12;;;;;;;;;9.33;9.33;;;;;13.60;87.30;102210.75;4938230;28;45394;-84
2023/04/03 09:52:39;;;;;;;;;8.67;6.67;;;;;13.41;88.52;102203.06;4979485;28;45752;-84
2023/04/03 09:55:14;;;;;;;;;6.00;6.00;;;;;13.18;86.43;102201.25;5015290;28;45400;-83
2023/04/03 09:57:39;;;;;;;;;4.67;4.67;;;;;12.93;86.72;102194.31;4998298;28;45319;-84
2023/04/03 10:00:19;;;;;;;;;9.33;7.00;;;;;12.94;87.21;102154.75;4997515;28;45978;-83
2023/04/03 10:02:48;;;;;;;;;10.67;10.67;;;;;13.40;85.20;102191.22;5011367;28;45409;-84
2023/04/03 10:05:34;;;;;;;;;6.67;5.33;;;;;14.17;84.48;102177.84;5012329;28;45137;-82
2023/04/03 10:08:16;;;;;;;;;10.67;7.67;;;;;15.62;80.75;102185.63;4999797;28;46460;-84
2023/04/03 10:10:46;;;;;;;;;10.33;10.33;;;;;16.71;76.79;102170.66;5007939;28;45730;-82
2023/04/03 10:13:24;;;;;;;;;5.67;4.33;;;;;17.46;71.90;102175.81;5023596;28;45070;-82
2023/04/03 10:16:18;;;;;;;;;6.67;5.00;;;;;18.21;68.76;102163.22;5019386;28;45487;-81
2023/04/03 10:18:53;;;;;;;;;7.00;7.00;;;;;18.75;66.03;102162.78;5005653;28;45468;-81
2023/04/03 10:21:27;;;;;;;;;10.67;8.67;;;;;19.29;64.32;102163.06;4994454;28;45197;-82
2023/04/03 10:24:21;;;;;;;;;7.33;6.67;;;;;19.18;58.74;102175.81;4987462;28;46337;-81
2023/04/03 10:27:16;;;;;;;;;4.33;3.00;;;;;18.90;56.67;102160.50;5007693;28;45526;-81
2023/04/03 10:30:06;;;;;;;;;6.33;5.00;;;;;18.99;55.79;102164.66;5002557;28;45435;-83
2023/04/03 10:32:44;;;;;;;;;7.00;6.00;;;;;18.93;54.87;102161.97;4992845;28;46362;-84
2023/04/03 10:35:33;;;;;;;;;9.00;8.00;;;;;18.80;54.09;102151.81;5005960;28;45993;-84
2023/04/03 10:38:21;;;;;;;;;7.33;5.00;;;;;18.81;54.18;102147.97;4989646;28;45361;-84
2023/04/03 10:41:21;;;;;;;;;8.00;6.67;;;;;19.21;53.82;102136.41;4974409;28;45884;-84
2023/04/03 10:43:57;;;;;;;;;5.33;4.00;;;;;18.82;52.97;102147.72;5004136;28;45840;-83
2023/04/03 10:46:29;;;;;;;;;8.67;4.00;;;;;18.83;51.97;102148.56;4988024;28;46970;-84
2023/04/03 10:49:17;;;;;;;;;7.67;7.33;;;;;18.79;51.32;102136.22;5010893;28;45534;-83
2023/04/03 10:51:47;;;;;;;;;7.67;6.00;;;;;18.33;51.98;102136.41;5015179;28;45574;-83
2023/04/03 10:54:25;;;;;;;;;6.00;6.00;;;;;17.72;51.03;102134.28;5005594;28;45824;-84
2023/04/03 10:56:55;;;;;;;;;5.00;5.00;;;;;17.38;51.56;102126.16;4996755;28;47284;-84
2023/04/03 10:59:28;;;;;;;;;5.33;4.33;;;;;17.10;51.52;102132.88;5005922;28;45563;-83
2023/04/03 11:01:57;;;;;;;;;3.33;3.33;;;;;16.83;51.65;102111.84;4990741;28;45418;-83
2023/04/03 11:04:27;;;;;;;;;4.33;4.00;;;;;16.68;52.76;102124.00;5007472;28;45850;-83
2023/04/03 11:07:17;;;;;;;;;5.00;4.00;;;;;16.29;52.48;102119.34;5001190;28;45903;-83
2023/04/03 11:09:46;;;;;;;;;5.00;4.33;;;;;15.69;53.21;102128.44;4997664;28;45763;-82
2023/04/03 11:12:21;;;;;;;;;7.33;5.00;;;;;15.47;53.98;102120.25;4999883;28;45441;-81
2023/04/03 11:14:50;;;;;;;;;2.00;2.00;;;;;15.25;54.51;102122.31;4994779;28;46479;-83
2023/04/03 11:17:18;;;;;;;;;3.67;3.00;;;;;14.77;54.68;102136.09;5003361;28;46111;-83
2023/04/03 11:20:03;;;;;;;;;4.00;4.00;;;;;14.01;54.89;102115.53;5012831;28;45927;-84
2023/04/03 11:22:43;;;;;;;;;5.67;5.00;;;;;13.45;57.27;102115.38;4996044;28;45885;-83